Time;durP1;ratioP1;P1;durP2;ratioP2;P2;SDS_P1;SDS_P2;PMS_P1;PMS_P2;Temp;Humidity;BMP_temperature;BMP_pressure;BME280_temperature;BME280_humidity;BME280_pressure;Samples;Min_cycle;Max_cycle;Signal;HPM_P1;HPM_P2
2021/05/18 00:02:10;;;;;;;19.05;12.23;;;;;;;8.33;100.00;97451.72;5031530;28;20444;-75
2021/05/18 00:04:36;;;;;;;17.52;10.48;;;;;;;8.19;100.00;97450.78;5032088;28;20466;-75
2021/05/18 00:07:02;;;;;;;23.63;10.57;;;;;;;8.13;100.00;97445.69;4997527;28;20057;-75
2021/05/18 00:12:15;;;;;;;15.55;9.75;;;;;;;8.17;100.00;97447.56;4964673;28;20116;-75
2021/05/18 00:14:41;;;;;;;25.65;9.80;;;;;;;8.09;100.00;97456.38;4996554;28;20133;-76
2021/05/18 00:17:06;;;;;;;22.70;9.40;;;;;;;8.00;100.00;97455.41;4992071;28;20034;-76
2021/05/18 00:19:32;;;;;;;14.07;10.90;;;;;;;8.22;100.00;97449.41;4980986;28;20129;-76
2021/05/18 00:21:57;;;;;;;23.73;10.10;;;;;;;8.16;100.00;97448.66;5020717;28;20025;-76
2021/05/18 00:24:22;;;;;;;15.15;10.43;;;;;;;8.17;100.00;97447.56;5019700;28;20852;-75
2021/05/18 00:26:48;;;;;;;14.95;11.95;;;;;;;8.25;100.00;97452.34;5011889;28;20026;-75
2021/05/18 00:29:14;;;;;;;28.95;11.07;;;;;;;8.07;100.00;97443.06;5011904;28;20045;-76
2021/05/18 00:31:41;;;;;;;36.03;10.57;;;;;;;7.93;100.00;97446.75;5011946;28;20033;-75
2021/05/18 00:34:06;;;;;;;15.00;9.90;;;;;;;8.02;100.00;97450.47;5011831;28;20032;-76
2021/05/18 00:36:32;;;;;;;15.73;9.93;;;;;;;8.03;100.00;97446.63;5011942;28;20440;-76
2021/05/18 00:38:58;;;;;;;41.53;11.35;;;;;;;7.99;100.00;97456.47;5012119;28;20030;-76
2021/05/18 00:41:24;;;;;;;17.45;9.93;;;;;;;8.08;100.00;97468.38;5011000;28;20026;-76
2021/05/18 00:43:49;;;;;;;18.48;10.63;;;;;;;8.05;100.00;97460.75;5010786;28;20069;-75
2021/05/18 00:46:15;;;;;;;20.08;10.60;;;;;;;8.23;100.00;97467.38;5011722;28;20108;-75
2021/05/18 00:48:40;;;;;;;17.65;11.30;;;;;;;8.35;100.00;97459.59;5011297;28;20010;-75
2021/05/18 00:51:09;;;;;;;20.00;12.13;;;;;;;8.38;100.00;97461.75;4993709;28;20053;-76
2021/05/18 00:53:36;;;;;;;21.42;11.23;;;;;;;8.32;100.00;97460.19;5011463;28;20014;-76
2021/05/18 00:56:05;;;;;;;23.42;11.25;;;;;;;8.32;100.00;97460.19;5016715;28;20030;-76
2021/05/18 00:58:41;;;;;;;25.75;12.43;;;;;;;8.37;100.00;97454.66;5017353;28;20124;-75
2021/05/18 01:01:18;;;;;;;25.35;13.02;;;;;;;8.33;100.00;97461.81;5016360;28;20026;-74
2021/05/18 01:03:45;;;;;;;19.27;12.70;;;;;;;8.49;100.00;97460.50;4993604;28;20041;-76
2021/05/18 01:06:19;;;;;;;31.33;14.20;;;;;;;8.36;100.00;97455.78;5011100;28;20531;-74
2021/05/18 01:08:46;;;;;;;28.15;13.70;;;;;;;8.46;100.00;97471.97;5010335;28;20033;-76
2021/05/18 01:11:13;;;;;;;26.05;15.65;;;;;;;8.58;100.00;97465.00;5011506;28;20042;-74
2021/05/18 01:13:38;;;;;;;24.67;14.32;;;;;;;8.58;100.00;97473.16;5012077;28;20557;-75
2021/05/18 01:16:06;;;;;;;30.67;14.85;;;;;;;8.48;100.00;97473.34;5012009;28;20022;-74
2021/05/18 01:18:40;;;;;;;25.40;13.48;;;;;;;8.52;100.00;97482.53;5011119;28;20022;-74
2021/05/18 01:21:07;;;;;;;26.08;15.52;;;;;;;8.65;100.00;97480.16;5011082;28;20029;-75
2021/05/18 01:23:33;;;;;;;27.40;13.88;;;;;;;8.47;100.00;97484.50;5010488;28;20478;-76
2021/05/18 01:25:58;;;;;;;26.67;13.07;;;;;;;8.53;100.00;97478.69;5010749;28;20064;-75
2021/05/18 01:28:25;;;;;;;30.65;12.30;;;;;;;8.33;100.00;97487.13;4992395;28;20032;-75
2021/05/18 01:30:50;;;;;;;35.20;13.25;;;;;;;8.33;100.00;97484.41;5010525;28;20033;-75
2021/05/18 01:33:16;;;;;;;21.10;12.73;;;;;;;8.33;100.00;97489.06;5019990;28;20037;-74
2021/05/18 01:35:42;;;;;;;26.20;9.73;;;;;;;8.07;100.00;97480.38;5018931;28;20129;-75
2021/05/18 01:38:11;;;;;;;17.63;11.32;;;;;;;8.11;100.00;97484.16;5025332;28;20032;-75
2021/05/18 01:43:13;;;;;;;20.90;11.02;;;;;;;8.26;100.00;97478.50;5030273;28;20091;-75
2021/05/18 01:45:41;;;;;;;34.33;12.73;;;;;;;8.01;100.00;97481.53;5030005;28;20025;-74
2021/05/18 01:48:11;;;;;;;21.38;12.27;;;;;;;8.13;100.00;97483.84;5030148;28;20649;-75
2021/05/18 01:50:38;;;;;;;28.15;11.77;;;;;;;8.06;100.00;97489.63;5030526;28;20033;-75
2021/05/18 01:53:03;;;;;;;29.33;9.93;;;;;;;7.88;100.00;97485.75;5013760;28;20033;-76
2021/05/18 01:57:55;;;;;;;25.90;11.20;;;;;;;7.98;100.00;97501.19;5033917;28;20112;-76
2021/05/18 02:00:24;;;;;;;28.42;10.68;;;;;;;7.90;100.00;97496.34;5015640;28;20386;-75
2021/05/18 02:02:50;;;;;;;27.55;13.10;;;;;;;7.94;100.00;97503.66;5034110;28;20061;-76
2021/05/18 02:05:17;;;;;;;22.38;11.10;;;;;;;7.90;100.00;97501.78;5033924;28;20030;-76
2021/05/18 02:07:46;;;;;;;24.73;11.90;;;;;;;7.92;100.00;97505.88;5030477;28;20068;-76
2021/05/18 02:10:14;;;;;;;20.63;12.77;;;;;;;8.19;100.00;97508.00;5021201;28;20060;-75
2021/05/18 02:12:39;;;;;;;25.48;14.65;;;;;;;8.16;100.00;97505.88;5022211;28;20034;-76
2021/05/18 02:16:00;;;;;;;28.85;12.35;;;;;;;7.95;100.00;97496.31;5015558;28;20037;-77
2021/05/18 02:18:59;;;;;;;24.77;11.18;;;;;;;7.89;100.00;97502.91;5000010;28;20076;-76
2021/05/18 02:26:38;;;;;;;25.50;11.13;;;;;;;7.85;100.00;97515.47;4995252;28;20160;-76
2021/05/18 02:29:04;;;;;;;28.83;13.13;;;;;;;7.92;100.00;97510.50;4976520;28;20462;-75
2021/05/18 02:31:30;;;;;;;32.45;13.63;;;;;;;7.98;100.00;97509.34;4994209;28;20494;-75
2021/05/18 02:33:55;;;;;;;22.77;12.85;;;;;;;8.06;100.00;97512.25;4993769;28;20030;-75
2021/05/18 02:36:24;;;;;;;23.25;12.57;;;;;;;8.11;100.00;97514.09;4976135;28;20014;-75
2021/05/18 02:38:49;;;;;;;20.35;11.35;;;;;;;8.07;100.00;97513.88;4993727;28;20035;-75
2021/05/18 02:41:15;;;;;;;18.50;12.32;;;;;;;8.07;100.00;97508.41;4975875;28;20421;-76
2021/05/18 02:43:46;;;;;;;33.10;11.63;;;;;;;8.07;100.00;97508.41;5003920;28;20022;-76
2021/05/18 02:51:29;;;;;;;23.10;13.40;;;;;;;7.93;100.00;97510.19;4994560;28;20045;-75
2021/05/18 02:53:55;;;;;;;26.45;15.05;;;;;;;8.00;100.00;97516.13;4994218;28;20030;-75
2021/05/18 02:56:31;;;;;;;28.55;13.75;;;;;;;7.85;100.00;97518.19;4994783;28;20054;-77
2021/05/18 02:59:09;;;;;;;25.70;13.35;;;;;;;7.87;100.00;97510.53;4993590;28;20069;-76
2021/05/18 03:01:35;;;;;;;22.38;13.52;;;;;;;7.94;100.00;97520.00;4993563;28;20038;-76
2021/05/18 03:04:01;;;;;;;34.03;14.80;;;;;;;7.96;100.00;97516.97;4993103;28;20023;-77
2021/05/18 03:06:26;;;;;;;25.30;14.00;;;;;;;8.01;100.00;97525.09;4993943;28;20037;-75
2021/05/18 03:08:52;;;;;;;24.42;13.65;;;;;;;8.08;100.00;97525.59;4993919;28;20037;-76
2021/05/18 03:11:17;;;;;;;25.27;14.05;;;;;;;8.11;100.00;97518.72;4993826;28;20019;-74
2021/05/18 03:13:43;;;;;;;26.90;13.70;;;;;;;8.04;100.00;97525.34;4993834;28;20085;-74
2021/05/18 03:16:10;;;;;;;28.92;14.70;;;;;;;8.21;100.00;97527.59;4993917;28;20025;-75
2021/05/18 03:18:35;;;;;;;25.10;12.85;;;;;;;8.11;100.00;97525.00;4976323;28;20125;-74
2021/05/18 03:21:02;;;;;;;28.65;13.02;;;;;;;8.14;100.00;97527.13;5016949;28;20096;-76
2021/05/18 03:23:28;;;;;;;25.98;13.35;;;;;;;8.13;100.00;97538.31;5018244;28;20444;-75
2021/05/18 03:25:54;;;;;;;23.92;12.13;;;;;;;8.13;100.00;97541.84;5012041;28;20151;-77
2021/05/18 03:28:21;;;;;;;24.67;11.63;;;;;;;8.19;100.00;97546.16;5014542;28;20095;-76
2021/05/18 03:36:09;;;;;;;23.75;11.57;;;;;;;8.05;100.00;97558.81;5032648;28;20051;-78
2021/05/18 03:38:41;;;;;;;22.95;12.65;;;;;;;8.05;100.00;97556.09;5032648;28;20482;-74
2021/05/18 03:41:16;;;;;;;33.15;13.13;;;;;;;7.99;100.00;97568.13;5032883;28;20028;-75
2021/05/18 03:54:22;;;;;;;21.25;11.48;;;;;;;8.04;100.00;97570.81;5032569;28;20124;-75
2021/05/18 04:04:51;;;;;;;18.75;10.45;;;;;;;8.15;100.00;97590.56;5012187;28;20111;-76
2021/05/18 04:12:47;;;;;;;13.88;8.90;;;;;;;8.24;100.00;97589.66;5011423;28;20168;-75
2021/05/18 04:20:35;;;;;;;12.30;8.43;;;;;;;8.35;100.00;97602.13;5010848;28;20030;-76
2021/05/18 04:23:39;;;;;;;13.32;7.90;;;;;;;8.28;100.00;97615.28;5009960;28;20060;-76
2021/05/18 04:53:00;;;;;;;9.10;6.53;;;;;;;8.39;100.00;97662.31;5010648;28;20030;-79
2021/05/18 05:03:40;;;;;;;9.77;6.00;;;;;;;8.26;100.00;97657.50;4981445;28;922708;-75
2021/05/18 05:07:07;;;;;;;9.07;7.50;;;;;;;8.17;100.00;97660.03;5010080;28;20061;-75
2021/05/18 05:14:20;;;;;;;9.52;5.78;;;;;;;8.39;100.00;97635.88;5009067;28;20592;-75
2021/05/18 05:16:46;;;;;;;9.90;6.40;;;;;;;8.68;100.00;97657.59;4992505;28;20030;-77
2021/05/18 05:19:11;;;;;;;9.82;6.38;;;;;;;8.78;100.00;97659.41;5021951;28;20025;-76
2021/05/18 05:21:38;;;;;;;7.78;6.60;;;;;;;8.35;100.00;97643.00;5027619;28;20030;-75
2021/05/18 05:24:07;;;;;;;12.52;7.80;;;;;;;8.44;100.00;97660.34;5019285;28;20021;-76
2021/05/18 05:26:35;;;;;;;8.95;6.70;;;;;;;8.48;100.00;97666.03;5020321;28;20467;-78
2021/05/18 05:29:02;;;;;;;10.35;6.57;;;;;;;8.53;100.00;97660.50;5021994;28;20044;-76
2021/05/18 05:31:27;;;;;;;8.95;7.05;;;;;;;8.49;100.00;97663.00;5017652;28;20537;-75
2021/05/18 05:33:52;;;;;;;10.43;6.35;;;;;;;8.48;100.00;97661.38;5014108;28;20029;-76
2021/05/18 05:36:18;;;;;;;13.07;8.27;;;;;;;8.47;100.00;97658.94;5018024;28;20025;-75
2021/05/18 05:38:44;;;;;;;9.52;7.50;;;;;;;8.54;100.00;97665.69;5018158;28;20047;-75
2021/05/18 05:41:09;;;;;;;9.40;7.38;;;;;;;8.60;100.00;97664.53;5026681;28;20044;-76
2021/05/18 05:43:35;;;;;;;11.07;6.70;;;;;;;8.78;100.00;97656.69;5022139;28;20013;-78
2021/05/18 05:46:00;;;;;;;14.60;6.72;;;;;;;8.93;100.00;97656.47;5003713;28;20041;-77
2021/05/18 05:48:26;;;;;;;9.35;6.22;;;;;;;9.19;100.00;97654.25;4997044;28;20061;-74
2021/05/18 05:50:51;;;;;;;8.05;5.72;;;;;;;9.33;100.00;97660.63;5014880;28;20033;-76
2021/05/18 05:53:20;;;;;;;9.20;6.95;;;;;;;9.11;100.00;97659.25;5015938;28;20026;-75
2021/05/18 05:55:45;;;;;;;12.55;7.72;;;;;;;9.20;100.00;97656.69;5019838;28;20025;-75
2021/05/18 05:58:11;;;;;;;11.38;6.63;;;;;;;9.07;100.00;97665.59;5013421;28;20026;-74
2021/05/18 06:00:37;;;;;;;10.27;6.90;;;;;;;8.90;100.00;97663.34;5000474;28;20176;-76
2021/05/18 06:03:03;;;;;;;12.45;7.95;;;;;;;9.20;100.00;97656.69;5020543;28;20106;-75
2021/05/18 06:05:28;;;;;;;10.35;7.20;;;;;;;9.41;100.00;97677.13;5020068;28;20041;-75
2021/05/18 06:07:54;;;;;;;12.98;6.88;;;;;;;9.22;100.00;97676.31;5019516;28;20010;-74
2021/05/18 06:10:31;;;;;;;11.85;7.03;;;;;;;9.38;100.00;97672.25;5017918;28;20136;-73
2021/05/18 06:42:43;;;;;;;10.52;7.43;;;;;;;9.57;100.00;97683.19;5021410;28;20029;-74
2021/05/18 06:47:53;;;;;;;8.13;6.72;;;;;;;9.60;100.00;97685.31;5019287;28;20497;-73
2021/05/18 06:52:46;;;;;;;9.70;7.18;;;;;;;10.07;99.58;97697.97;5021011;28;20025;-74
2021/05/18 06:55:16;;;;;;;10.10;7.90;;;;;;;10.04;98.51;97704.84;5022549;28;20033;-74
2021/05/18 06:57:46;;;;;;;10.13;7.50;;;;;;;10.09;97.97;97701.22;5005856;28;20902;-73
2021/05/18 07:00:17;;;;;;;10.63;7.97;;;;;;;9.88;97.81;97698.00;5004636;28;20029;-73
2021/05/18 07:02:44;;;;;;;10.10;7.82;;;;;;;9.83;98.36;97697.28;5020998;28;20041;-74
2021/05/18 07:05:32;;;;;;;10.80;6.47;;;;;;;10.23;97.21;97696.66;5023013;28;20116;-75
2021/05/18 07:08:07;;;;;;;10.70;7.15;;;;;;;10.44;94.69;97689.72;5021490;28;20032;-73
2021/05/18 07:10:33;;;;;;;8.27;7.32;;;;;;;10.59;93.39;97705.84;5017408;28;20024;-72
2021/05/18 07:12:58;;;;;;;8.35;6.30;;;;;;;10.69;93.30;97702.09;5016584;28;20033;-73
2021/05/18 07:15:27;;;;;;;8.43;6.22;;;;;;;11.07;92.96;97713.69;5022440;28;20049;-74
2021/05/18 07:17:52;;;;;;;10.95;7.20;;;;;;;10.73;92.92;97714.88;4998198;28;20442;-73
2021/05/18 07:20:18;;;;;;;7.97;6.32;;;;;;;11.25;90.40;97710.84;5011799;28;20032;-73
2021/05/18 07:22:44;;;;;;;8.95;7.03;;;;;;;11.41;89.22;97708.59;5012292;28;20026;-75
2021/05/18 07:25:09;;;;;;;12.00;7.15;;;;;;;11.32;88.99;97712.34;5012412;28;20029;-73
2021/05/18 07:27:36;;;;;;;9.20;6.88;;;;;;;11.48;87.80;97708.16;5012998;28;20057;-73
2021/05/18 07:30:02;;;;;;;8.73;6.80;;;;;;;11.39;88.56;97719.03;5011661;28;20537;-73
2021/05/18 07:32:28;;;;;;;8.55;6.97;;;;;;;11.19;90.48;97719.44;5017824;28;20451;-73
2021/05/18 07:34:55;;;;;;;10.02;7.55;;;;;;;11.48;89.37;97711.72;5021837;28;20029;-73
2021/05/18 07:37:21;;;;;;;7.38;6.68;;;;;;;11.81;87.89;97721.41;5017122;28;20529;-73
2021/05/18 07:39:46;;;;;;;7.57;6.22;;;;;;;11.91;87.33;97725.03;5011994;28;20041;-75
2021/05/18 07:42:12;;;;;;;13.90;6.60;;;;;;;12.05;85.29;97714.84;5012755;28;20022;-75
2021/05/18 07:44:37;;;;;;;9.32;6.00;;;;;;;12.14;85.18;97702.00;4994550;28;20391;-73
2021/05/18 07:47:03;;;;;;;8.13;6.47;;;;;;;12.60;83.12;97710.69;5012644;28;20022;-72
2021/05/18 07:49:33;;;;;;;8.93;6.63;;;;;;;13.72;78.87;97724.88;5020499;28;20022;-73
2021/05/18 08:00:37;;;;;;;7.55;6.25;;;;;;;14.25;74.71;97724.59;5031030;28;20437;-74
2021/05/18 08:06:04;;;;;;;7.50;5.57;;;;;;;15.89;70.43;97723.66;4950508;28;20035;-74
2021/05/18 08:08:29;;;;;;;7.55;5.32;;;;;;;17.13;63.04;97717.94;5007832;28;20049;-74
2021/05/18 08:11:02;;;;;;;13.05;5.10;;;;;;;16.52;63.14;97719.72;5020566;28;20035;-74
2021/05/18 08:13:28;;;;;;;6.07;5.05;;;;;;;15.54;67.54;97708.47;4998491;28;20519;-74
2021/05/18 10:35:54;;;;;;;2.70;1.70;;;;;;;23.20;40.04;97586.78;5021578;28;20062;-72
2021/05/18 10:38:25;;;;;;;2.47;1.73;;;;;;;22.70;41.52;97579.97;5014885;28;20080;-73
2021/05/18 10:40:54;;;;;;;6.90;1.67;;;;;;;22.10;42.35;97574.50;5013610;28;20132;-74
2021/05/18 10:43:28;;;;;;;1.92;1.10;;;;;;;21.72;41.71;97580.34;5003880;28;20056;-77
2021/05/18 10:45:57;;;;;;;1.88;0.98;;;;;;;22.09;42.55;97575.69;5014333;28;20402;-73
2021/05/18 10:48:25;;;;;;;3.03;1.13;;;;;;;22.04;42.22;97573.25;5023079;28;20022;-73
2021/05/18 10:50:54;;;;;;;1.00;0.82;;;;;;;22.47;41.68;97559.78;5016226;28;20036;-74
2021/05/18 10:53:24;;;;;;;3.75;1.35;;;;;;;23.40;41.29;97569.41;5016835;28;20029;-74
2021/05/18 10:56:07;;;;;;;3.17;0.90;;;;;;;22.49;39.34;97560.22;4998853;28;20807;-74
2021/05/18 10:58:33;;;;;;;1.60;0.88;;;;;;;23.09;39.60;97561.56;5002450;28;20045;-76
2021/05/18 11:00:59;;;;;;;5.40;1.05;;;;;;;22.52;38.89;97551.88;5002328;28;20026;-75
2021/05/18 11:03:25;;;;;;;0.80;0.68;;;;;;;22.09;37.27;97549.81;5000795;28;20045;-75
2021/05/18 11:05:51;;;;;;;0.68;0.50;;;;;;;22.40;38.11;97554.91;5021090;28;20030;-76
2021/05/18 11:08:16;;;;;;;1.30;0.60;;;;;;;22.37;38.51;97544.53;5024174;28;20029;-77
2021/05/18 11:10:44;;;;;;;1.55;0.70;;;;;;;22.21;39.25;97535.63;5021535;28;20038;-76
2021/05/18 11:13:09;;;;;;;2.40;0.45;;;;;;;22.36;36.75;97535.41;5001551;28;20017;-78
2021/05/18 11:15:35;;;;;;;2.03;1.15;;;;;;;22.45;35.94;97534.28;5018827;28;20033;-78
2021/05/18 11:18:03;;;;;;;2.35;0.60;;;;;;;22.64;37.82;97531.28;5019221;28;20010;-78
2021/05/18 11:25:58;;;;;;;2.38;1.05;;;;;;;21.47;44.27;97516.00;5022000;28;20025;-78
2021/05/18 11:28:49;;;;;;;5.43;1.42;;;;;;;21.09;44.60;97521.78;5022278;28;20037;-81
2021/05/18 11:31:16;;;;;;;3.40;1.40;;;;;;;21.38;43.22;97525.81;5008229;28;20269;-75
2021/05/18 11:33:47;;;;;;;3.35;1.20;;;;;;;21.55;42.48;97516.91;5020233;28;20045;-81
2021/05/18 11:36:25;;;;;;;3.40;1.30;;;;;;;21.50;41.98;97511.66;5006445;28;20017;-79
2021/05/18 11:39:14;;;;;;;1.33;0.60;;;;;;;20.86;34.13;97516.28;5031966;28;20030;-76
2021/05/18 11:41:42;;;;;;;6.82;1.00;;;;;;;21.02;36.89;97516.91;5031845;28;20032;-78
2021/05/18 11:44:12;;;;;;;6.53;2.17;;;;;;;20.86;35.33;97510.72;5025242;28;20018;-77
2021/05/18 11:46:51;;;;;;;3.80;1.80;;;;;;;20.53;42.23;97508.56;5004872;28;20026;-77
2021/05/18 11:49:19;;;;;;;2.95;0.60;;;;;;;20.54;36.69;97498.25;5014261;28;20036;-78
2021/05/18 11:51:48;;;;;;;1.63;0.82;;;;;;;20.18;36.75;97497.59;4985078;28;20073;-75
2021/05/18 11:54:16;;;;;;;0.40;0.40;;;;;;;20.03;37.17;97479.06;4999439;28;20113;-74
2021/05/18 11:56:42;;;;;;;1.55;0.88;;;;;;;20.16;38.21;97483.28;4993417;28;20014;-74
2021/05/18 11:59:10;;;;;;;2.42;0.88;;;;;;;20.34;42.12;97485.59;4993488;28;20410;-74
2021/05/18 12:01:49;;;;;;;3.78;0.73;;;;;;;20.54;40.94;97476.03;5011097;28;20026;-75
2021/05/18 12:04:17;;;;;;;1.02;0.50;;;;;;;20.90;41.24;97480.97;5009170;28;20057;-74
2021/05/18 12:07:04;;;;;;;1.85;0.75;;;;;;;21.25;40.48;97475.94;5011457;28;20060;-73
2021/05/18 12:09:33;;;;;;;0.77;0.77;;;;;;;21.14;36.62;97477.78;5016769;28;20029;-81
2021/05/18 12:12:01;;;;;;;1.63;0.55;;;;;;;21.19;36.83;97474.66;5005281;28;20575;-83
2021/05/18 12:14:28;;;;;;;1.38;0.65;;;;;;;21.13;37.50;97472.59;5011815;28;20030;-81
2021/05/18 12:16:54;;;;;;;1.38;0.82;;;;;;;21.26;37.03;97473.97;5017397;28;20032;-80
2021/05/18 12:19:20;;;;;;;0.75;0.52;;;;;;;21.22;36.07;97456.41;5022269;28;20023;-80
2021/05/18 12:21:51;;;;;;;0.90;0.50;;;;;;;21.47;34.41;97462.31;5018339;28;20821;-80
2021/05/18 12:24:18;;;;;;;0.50;0.50;;;;;;;21.38;34.22;97459.81;5022873;28;20061;-80
2021/05/18 12:26:49;;;;;;;1.38;0.55;;;;;;;21.56;37.17;97452.47;5005202;28;20395;-81
2021/05/18 12:29:35;;;;;;;2.08;1.10;;;;;;;21.52;37.54;97456.41;5002774;28;20033;-83
2021/05/18 12:32:18;;;;;;;1.27;0.60;;;;;;;20.88;36.91;97447.16;5022850;28;20037;-82
2021/05/18 12:34:45;;;;;;;0.95;0.57;;;;;;;21.03;37.65;97453.72;5016985;28;21208;-83
2021/05/18 12:37:15;;;;;;;1.95;0.50;;;;;;;20.57;37.45;97428.03;5020936;28;20526;-85
2021/05/18 12:40:09;;;;;;;0.80;0.50;;;;;;;20.61;37.67;97409.44;5026954;28;20022;-81
2021/05/18 12:42:37;;;;;;;2.55;0.30;;;;;;;20.63;35.01;97419.00;5004743;28;20104;-81
2021/05/18 12:45:38;;;;;;;0.28;0.28;;;;;;;20.84;34.38;97418.50;5011786;28;20033;-81
2021/05/18 12:48:58;;;;;;;0.82;0.70;;;;;;;20.80;33.81;97421.22;5027275;28;20054;-83
2021/05/18 12:51:25;;;;;;;1.58;0.45;;;;;;;20.68;34.03;97404.78;5015139;28;20487;-81
2021/05/18 12:54:04;;;;;;;0.28;0.20;;;;;;;20.78;34.35;97415.25;5018583;28;20399;-84
2021/05/18 12:56:31;;;;;;;0.52;0.40;;;;;;;20.72;34.25;97425.09;5013275;28;20036;-78
2021/05/18 12:59:04;;;;;;;0.85;0.68;;;;;;;20.68;35.10;97417.84;5019995;28;20044;-82
2021/05/18 13:01:42;;;;;;;0.70;0.40;;;;;;;20.51;34.44;97410.88;5021783;28;20060;-81
2021/05/18 13:04:14;;;;;;;2.20;0.38;;;;;;;20.55;35.30;97411.72;5018621;28;20455;-81
2021/05/18 13:06:51;;;;;;;0.30;0.15;;;;;;;20.45;34.90;97411.56;5001838;28;20041;-81
2021/05/18 13:09:30;;;;;;;1.00;0.40;;;;;;;20.36;35.13;97413.81;5020418;28;20550;-80
2021/05/18 13:12:12;;;;;;;1.20;0.38;;;;;;;20.27;34.55;97419.59;4999544;28;20054;-82
2021/05/18 13:14:56;;;;;;;2.28;0.45;;;;;;;20.59;34.89;97414.56;5017449;28;20022;-80
2021/05/18 13:17:22;;;;;;;0.10;0.10;;;;;;;20.75;34.86;97417.97;5019281;28;20030;-76
2021/05/18 13:20:12;;;;;;;2.35;0.38;;;;;;;20.93;34.86;97416.25;5020203;28;20030;-77
2021/05/18 13:22:41;;;;;;;3.28;0.50;;;;;;;20.83;35.29;97405.78;5014815;28;20041;-80
2021/05/18 13:27:52;;;;;;;2.22;0.40;;;;;;;20.21;38.65;97401.59;5018756;28;20029;-79
2021/05/18 13:30:18;;;;;;;0.85;0.57;;;;;;;20.18;38.88;97403.16;5015179;28;20072;-76
2021/05/18 13:32:47;;;;;;;1.48;0.52;;;;;;;20.76;39.12;97389.81;5019378;28;20025;-76
2021/05/18 13:35:14;;;;;;;0.30;0.30;;;;;;;20.75;38.40;97381.84;5020812;28;20006;-86
2021/05/18 13:37:40;;;;;;;1.35;0.70;;;;;;;20.61;37.99;97381.66;5020430;28;20049;-83
2021/05/18 13:40:06;;;;;;;0.30;0.20;;;;;;;20.63;36.00;97379.28;5009127;28;20025;-87
2021/05/18 13:42:31;;;;;;;0.35;0.30;;;;;;;20.68;35.24;97351.94;4993082;28;20045;-81
2021/05/18 13:44:58;;;;;;;2.28;0.50;;;;;;;21.04;35.02;97358.00;5019624;28;20026;-86
2021/05/18 13:47:23;;;;;;;0.82;0.50;;;;;;;21.39;35.25;97379.91;5002935;28;20017;-76
2021/05/18 13:49:49;;;;;;;0.35;0.28;;;;;;;21.25;34.91;97378.56;5020350;28;20595;-84
2021/05/18 13:52:14;;;;;;;0.75;0.40;;;;;;;21.08;34.31;97384.66;5004354;28;20029;-79
2021/05/18 13:54:40;;;;;;;0.77;0.40;;;;;;;21.23;34.25;97374.56;5020025;28;20045;-77
2021/05/18 13:57:06;;;;;;;0.55;0.38;;;;;;;21.32;33.76;97375.88;5003727;28;20072;-80
2021/05/18 13:59:31;;;;;;;0.32;0.30;;;;;;;21.45;33.71;97368.06;5017568;28;20080;-79
2021/05/18 14:02:00;;;;;;;0.93;0.40;;;;;;;21.55;33.58;97374.94;5005773;28;20050;-78
2021/05/18 14:04:26;;;;;;;1.27;0.60;;;;;;;21.27;34.21;97359.50;5021496;28;20057;-78
2021/05/18 14:09:48;;;;;;;;;;;;;;;21.42;35.42;97377.16;5016568;28;20064;-79
2021/05/18 14:12:18;;;;;;;2.20;0.90;;;;;;;21.21;37.24;97383.28;5018467;28;20425;-80
2021/05/18 14:14:44;;;;;;;2.60;0.50;;;;;;;20.45;42.49;97369.88;5007231;28;20491;-84
2021/05/18 14:17:09;;;;;;;2.50;0.82;;;;;;;20.40;44.74;97378.53;5021680;28;20041;-85
2021/05/18 14:19:34;;;;;;;3.38;1.00;;;;;;;20.58;43.31;97382.41;5012403;28;20026;-79
2021/05/18 14:22:01;;;;;;;0.93;0.80;;;;;;;20.58;43.27;97390.72;5010473;28;20423;-77
2021/05/18 14:24:38;;;;;;;1.02;0.50;;;;;;;20.66;42.17;97372.97;5009163;28;20030;-76
2021/05/18 14:27:07;;;;;;;1.48;0.35;;;;;;;20.26;43.96;97360.47;5009375;28;20458;-75
2021/05/18 14:29:34;;;;;;;3.10;1.33;;;;;;;20.49;44.76;97368.75;5018515;28;20033;-77
2021/05/18 14:31:59;;;;;;;15.75;9.55;;;;;;;20.98;43.41;97363.09;5009314;28;20026;-75
2021/05/18 14:34:25;;;;;;;4.05;1.80;;;;;;;21.39;42.65;97369.59;5006793;28;20026;-79
2021/05/18 14:36:50;;;;;;;2.45;0.82;;;;;;;21.32;41.90;97373.09;4989291;28;20026;-74
2021/05/18 14:39:23;;;;;;;1.27;0.55;;;;;;;21.52;41.57;97372.91;4989207;28;20033;-77
2021/05/18 14:44:32;;;;;;;1.20;0.70;;;;;;;21.15;39.79;97373.66;5016303;28;20083;-80
2021/05/18 14:47:04;;;;;;;2.58;0.50;;;;;;;21.00;39.65;97366.28;5018256;28;20038;-73
2021/05/18 14:55:18;;;;;;;2.45;0.80;;;;;;;20.24;41.70;97368.34;5013929;28;20064;-79
2021/05/18 14:57:43;;;;;;;0.93;0.40;;;;;;;19.97;41.81;97375.03;5017393;28;20036;-75
2021/05/18 15:00:09;;;;;;;0.93;0.40;;;;;;;19.76;41.16;97375.47;5021784;28;20488;-76
2021/05/18 15:02:35;;;;;;;2.35;0.55;;;;;;;19.69;41.99;97374.53;5013559;28;20731;-74
2021/05/18 15:05:01;;;;;;;2.88;0.77;;;;;;;19.72;41.41;97362.69;5003928;28;20055;-80
2021/05/18 15:07:26;;;;;;;0.50;0.50;;;;;;;19.66;42.44;97364.16;5020832;28;20037;-76
2021/05/18 15:09:52;;;;;;;2.22;0.47;;;;;;;19.59;41.15;97367.63;5020099;28;20105;-75
2021/05/18 15:12:17;;;;;;;0.88;0.60;;;;;;;19.64;41.23;97372.06;5021736;28;20456;-74
2021/05/18 15:14:44;;;;;;;1.33;0.50;;;;;;;19.54;41.47;97372.66;5020360;28;20034;-75
2021/05/18 15:17:09;;;;;;;3.10;0.63;;;;;;;19.62;41.54;97368.84;5022337;28;20017;-76
2021/05/18 15:19:35;;;;;;;3.60;0.88;;;;;;;19.48;41.72;97368.59;5025367;28;20025;-77
2021/05/18 15:22:00;;;;;;;1.23;0.73;;;;;;;19.39;41.90;97365.22;5014224;28;20394;-76
2021/05/18 15:24:29;;;;;;;0.55;0.43;;;;;;;19.52;42.34;97370.25;5024383;28;20707;-76
2021/05/18 15:26:55;;;;;;;0.85;0.57;;;;;;;19.60;41.95;97355.34;5001901;28;20069;-77
2021/05/18 15:29:21;;;;;;;5.20;0.60;;;;;;;19.92;42.31;97372.56;5018797;28;20026;-75
2021/05/18 15:31:47;;;;;;;2.78;0.73;;;;;;;20.13;42.32;97372.94;5002381;28;20037;-75
2021/05/18 15:34:13;;;;;;;1.88;0.75;;;;;;;20.30;42.71;97377.19;5019783;28;20021;-80
2021/05/18 15:36:39;;;;;;;1.73;0.77;;;;;;;20.19;42.06;97377.00;5019682;28;20112;-79
2021/05/18 15:39:05;;;;;;;1.83;0.55;;;;;;;19.87;42.61;97364.53;5020275;28;20021;-79
2021/05/18 15:41:31;;;;;;;6.57;1.25;;;;;;;19.83;41.76;97363.66;5003922;28;20032;-82
2021/05/18 15:43:56;;;;;;;4.47;1.20;;;;;;;19.83;43.08;97368.44;5019324;28;20053;-77
2021/05/18 15:46:23;;;;;;;1.88;1.00;;;;;;;19.88;42.80;97371.72;5024701;28;20021;-79
2021/05/18 15:48:48;;;;;;;1.95;1.20;;;;;;;19.83;43.97;97360.88;5023727;28;20029;-80
2021/05/18 15:51:14;;;;;;;2.85;1.23;;;;;;;19.70;43.57;97365.81;5004893;28;20033;-77
2021/05/18 15:53:39;;;;;;;7.00;3.15;;;;;;;19.75;45.13;97356.41;4998830;28;20483;-86
2021/05/18 15:56:05;;;;;;;10.82;3.72;;;;;;;20.01;45.37;97366.75;5004632;28;20037;-84
2021/05/18 15:58:30;;;;;;;1.98;1.10;;;;;;;20.12;43.41;97365.75;5027666;28;20072;-85
2021/05/18 16:00:57;;;;;;;4.35;1.05;;;;;;;19.98;43.50;97359.19;5006135;28;20032;-86
2021/05/18 16:03:22;;;;;;;1.83;0.93;;;;;;;20.02;42.72;97358.03;5016951;28;20120;-84
2021/05/18 16:05:48;;;;;;;1.90;0.90;;;;;;;20.13;42.00;97374.91;5019972;28;20121;-82
2021/05/18 16:10:52;;;;;;;4.20;0.90;;;;;;;20.21;41.59;97371.84;5013999;28;20395;-74
2021/05/18 16:13:18;;;;;;;1.65;0.75;;;;;;;20.19;42.22;97374.22;5000017;28;20026;-76
2021/05/18 16:15:43;;;;;;;3.95;0.63;;;;;;;19.93;42.16;97374.16;5014258;28;20457;-81
2021/05/18 16:18:09;;;;;;;3.50;1.60;;;;;;;19.68;43.10;97373.72;5001832;28;20021;-80
2021/05/18 16:20:34;;;;;;;4.60;1.10;;;;;;;19.59;43.78;97380.69;5019618;28;20064;-75
2021/05/18 16:22:59;;;;;;;1.02;0.80;;;;;;;19.52;43.96;97375.00;5018374;28;20018;-85
2021/05/18 16:25:25;;;;;;;3.20;0.90;;;;;;;19.45;44.62;97377.66;5019515;28;20026;-80
2021/05/18 16:27:50;;;;;;;1.25;0.63;;;;;;;19.32;45.09;97376.97;5031166;28;20021;-76
2021/05/18 16:30:16;;;;;;;3.90;0.88;;;;;;;19.20;44.95;97375.13;5031083;28;20073;-83
2021/05/18 16:32:42;;;;;;;7.40;1.17;;;;;;;19.05;45.52;97373.25;4996144;28;20026;-82
2021/05/18 16:35:08;;;;;;;4.60;0.90;;;;;;;18.94;45.87;97338.97;5011123;28;20076;-80
2021/05/18 16:37:33;;;;;;;4.43;1.23;;;;;;;19.12;45.83;97353.19;4992865;28;20450;-82
2021/05/18 16:39:59;;;;;;;3.13;0.85;;;;;;;19.22;46.18;97334.00;5010929;28;20053;-76